createdAt,value
2018-11-22T00:01:38.908Z,8.63
2018-11-22T00:04:20.785Z,8.13
2018-11-22T00:07:01.875Z,8.50
2018-11-22T00:09:42.998Z,8.13
2018-11-22T00:12:13.343Z,9.97
2018-11-22T00:18:03.356Z,9.00
2018-11-22T00:20:44.471Z,10.30
2018-11-22T00:23:33.351Z,9.57
2018-11-22T00:26:22.470Z,11.67
2018-11-22T00:29:04.085Z,9.67
2018-11-22T00:31:45.459Z,9.83
2018-11-22T00:34:15.601Z,9.57
2018-11-22T00:40:05.113Z,7.90
2018-11-22T00:42:47.331Z,9.43
2018-11-22T00:45:29.769Z,11.00
2018-11-22T00:48:11.665Z,8.63
2018-11-22T00:50:53.074Z,10.00
2018-11-22T00:53:23.215Z,8.33
2018-11-22T00:56:12.307Z,9.17
2018-11-22T00:58:42.408Z,8.70
2018-11-22T01:01:31.457Z,9.87
2018-11-22T01:04:01.496Z,9.77
2018-11-22T01:06:50.474Z,10.23
2018-11-22T01:09:32.188Z,10.80
2018-11-22T01:12:13.549Z,11.00
2018-11-22T01:14:43.669Z,10.87
2018-11-22T01:17:13.716Z,11.47
2018-11-22T01:22:58.427Z,10.77
2018-11-22T01:25:39.424Z,10.03
2018-11-22T01:28:20.674Z,9.37
2018-11-22T01:31:01.676Z,9.70
2018-11-22T01:33:43.181Z,9.73
2018-11-22T01:36:24.655Z,10.70
2018-11-22T01:38:54.965Z,11.07
2018-11-22T01:41:25.022Z,11.40
2018-11-22T01:44:14.051Z,9.77
2018-11-22T01:47:03.035Z,9.33
2018-11-22T01:49:33.192Z,10.63
2018-11-22T01:58:07.863Z,8.90
2018-11-22T02:00:56.863Z,9.30
2018-11-22T02:03:27.187Z,10.40
2018-11-22T02:06:16.233Z,9.87
2018-11-22T02:08:57.452Z,9.50
2018-11-22T02:11:39.583Z,10.53
2018-11-22T02:14:20.946Z,9.73
2018-11-22T02:17:02.169Z,10.60
2018-11-22T02:19:43.415Z,11.27
2018-11-22T02:22:24.390Z,10.07
2018-11-22T02:24:54.774Z,10.33
2018-11-22T02:27:44.063Z,10.77
2018-11-22T02:30:19.693Z,10.80
2018-11-22T02:36:09.363Z,9.50
2018-11-22T02:38:50.962Z,9.97
2018-11-22T02:41:21.274Z,10.70
2018-11-22T02:44:10.307Z,10.63
2018-11-22T02:46:51.818Z,9.60
2018-11-22T02:49:33.047Z,9.37
2018-11-22T02:52:14.784Z,11.43
2018-11-22T02:54:55.945Z,9.33
2018-11-22T02:57:37.638Z,10.07
2018-11-22T03:00:25.705Z,10.37
2018-11-22T03:03:15.634Z,11.13
2018-11-22T03:09:05.257Z,10.53
2018-11-22T03:11:35.325Z,8.97
2018-11-22T03:14:24.309Z,9.33
2018-11-22T03:17:13.329Z,10.17
2018-11-22T03:20:02.362Z,10.13
2018-11-22T03:22:44.261Z,9.97
2018-11-22T03:25:26.015Z,9.13
2018-11-22T03:27:56.248Z,8.87
2018-11-22T03:36:39.513Z,8.97
2018-11-22T03:39:10.697Z,9.97
2018-11-22T03:41:59.809Z,10.50
2018-11-22T03:47:49.719Z,10.33
2018-11-22T03:50:23.988Z,11.40
2018-11-22T03:53:13.100Z,8.20
2018-11-22T03:59:02.660Z,9.17
2018-11-22T04:01:32.803Z,8.33
2018-11-22T04:04:21.854Z,8.20
2018-11-22T04:10:11.870Z,9.33
2018-11-22T04:12:53.325Z,8.97
2018-11-22T04:15:35.598Z,10.30
2018-11-22T04:18:16.780Z,12.03
2018-11-22T04:20:58.692Z,9.17
2018-11-22T04:23:28.912Z,8.53
2018-11-22T04:29:12.747Z,8.77
2018-11-22T04:31:53.955Z,9.60
2018-11-22T04:34:24.277Z,8.10
2018-11-22T04:43:10.068Z,21.93
2018-11-22T04:45:40.218Z,17.00
2018-11-22T04:48:29.320Z,25.33
2018-11-22T04:54:18.701Z,15.83
2018-11-22T04:57:00.182Z,16.97
2018-11-22T04:59:42.015Z,11.93
2018-11-22T05:02:23.029Z,14.47
2018-11-22T05:05:04.984Z,10.47
2018-11-22T05:07:46.246Z,10.43
2018-11-22T05:10:18.211Z,15.53
2018-11-22T05:12:48.924Z,13.80
2018-11-22T05:15:38.013Z,13.37
2018-11-22T05:18:27.064Z,12.73
2018-11-22T05:20:57.431Z,11.73
2018-11-22T05:23:46.411Z,11.97
2018-11-22T05:26:28.309Z,16.10
2018-11-22T05:29:12.500Z,11.87
2018-11-22T05:31:39.766Z,12.90
2018-11-22T05:34:28.816Z,10.40
2018-11-22T05:37:09.807Z,10.40
2018-11-22T05:39:50.981Z,9.60
2018-11-22T05:42:32.005Z,9.60
2018-11-22T05:45:15.148Z,11.13
2018-11-22T05:47:56.873Z,10.63
2018-11-22T05:50:38.203Z,10.97
2018-11-22T05:53:19.599Z,10.33
2018-11-22T05:56:01.085Z,12.53
2018-11-22T05:58:31.395Z,15.23
2018-11-22T06:01:20.413Z,17.03
2018-11-22T06:04:01.685Z,16.07
2018-11-22T06:06:42.975Z,16.97
2018-11-22T06:09:24.288Z,20.27
2018-11-22T06:12:05.566Z,19.40
2018-11-22T06:14:46.707Z,17.47
2018-11-22T06:17:27.842Z,17.27
2018-11-22T06:20:09.865Z,15.97
2018-11-22T06:22:51.441Z,17.67
2018-11-22T06:25:32.612Z,14.93
2018-11-22T06:28:13.971Z,15.67
2018-11-22T06:30:55.524Z,16.17
2018-11-22T06:33:25.749Z,15.70
2018-11-22T06:36:15.856Z,15.07
2018-11-22T06:38:46.106Z,14.43
2018-11-22T06:44:22.392Z,12.57
2018-11-22T06:47:03.541Z,14.53
2018-11-22T06:49:33.683Z,14.10
2018-11-22T06:55:30.059Z,15.40
2018-11-22T06:58:10.921Z,15.27
2018-11-22T07:00:52.154Z,13.83
2018-11-22T07:03:33.955Z,14.63
2018-11-22T07:06:15.583Z,14.77
2018-11-22T07:08:56.599Z,13.53
2018-11-22T07:11:26.799Z,16.47
2018-11-22T07:17:16.548Z,15.50
2018-11-22T07:19:57.906Z,13.47
2018-11-22T07:22:39.617Z,12.00
2018-11-22T07:25:13.084Z,12.57
2018-11-22T07:28:02.178Z,12.57
2018-11-22T07:30:42.332Z,10.87
2018-11-22T07:33:08.335Z,12.67
2018-11-22T07:35:57.423Z,11.30
2018-11-22T07:38:46.425Z,10.77
2018-11-22T07:41:16.602Z,11.20
2018-11-22T07:43:46.658Z,10.13
2018-11-22T07:46:35.659Z,12.63
2018-11-22T07:49:16.753Z,13.33
2018-11-22T07:51:58.283Z,12.63
2018-11-22T07:54:39.617Z,10.77
2018-11-22T07:57:21.053Z,11.63
2018-11-22T08:00:02.669Z,10.87
2018-11-22T08:02:45.243Z,11.87
2018-11-22T08:05:16.295Z,11.23
2018-11-22T08:08:05.398Z,11.37
2018-11-22T08:10:35.615Z,12.67
2018-11-22T08:13:24.756Z,11.93
2018-11-22T08:15:55.082Z,12.33
2018-11-22T08:18:25.293Z,13.87
2018-11-22T08:21:14.389Z,11.40
2018-11-22T08:24:03.410Z,11.13
2018-11-22T08:26:45.272Z,11.10
2018-11-22T08:29:27.008Z,12.37
2018-11-22T08:32:08.622Z,13.43
2018-11-22T08:34:49.979Z,13.40
2018-11-22T08:37:31.337Z,11.83
2018-11-22T08:40:01.544Z,11.90
2018-11-22T08:42:55.104Z,13.53
2018-11-22T08:45:39.684Z,10.63
2018-11-22T08:48:20.995Z,11.60
2018-11-22T08:51:02.336Z,10.63
2018-11-22T08:53:43.717Z,11.00
2018-11-22T08:56:13.782Z,11.77
2018-11-22T09:04:44.530Z,11.10
2018-11-22T09:07:14.763Z,16.43
2018-11-22T09:12:58.915Z,15.00
2018-11-22T09:15:40.341Z,12.77
2018-11-22T09:18:21.682Z,12.80
2018-11-22T09:21:03.001Z,12.63
2018-11-22T09:23:44.170Z,10.53
2018-11-22T09:26:26.252Z,11.60
2018-11-22T09:29:07.242Z,10.27
2018-11-22T09:31:48.278Z,11.03
2018-11-22T09:34:30.010Z,11.80
2018-11-22T09:37:11.227Z,11.40
2018-11-22T09:39:52.584Z,11.87
2018-11-22T09:42:33.704Z,13.23
2018-11-22T09:45:16.079Z,8.87
2018-11-22T09:47:57.280Z,9.83
2018-11-22T09:50:38.914Z,11.37
2018-11-22T09:53:20.385Z,10.10
2018-11-22T09:56:02.060Z,10.50
2018-11-22T09:58:43.157Z,10.83
2018-11-22T10:01:24.719Z,11.20
2018-11-22T10:04:05.875Z,10.63
2018-11-22T10:06:47.299Z,9.47
2018-11-22T10:09:28.669Z,46.30
2018-11-22T10:12:10.176Z,32.53
2018-11-22T10:14:51.270Z,21.20
2018-11-22T10:17:32.858Z,27.87
2018-11-22T10:20:14.927Z,28.97
2018-11-22T10:22:57.970Z,16.60
2018-11-22T10:25:39.098Z,15.83
2018-11-22T10:28:20.564Z,13.77
2018-11-22T10:31:02.007Z,12.13
2018-11-22T10:33:43.398Z,11.70
2018-11-22T10:36:24.394Z,12.27
2018-11-22T10:39:06.347Z,13.23
2018-11-22T10:41:47.862Z,14.50
2018-11-22T10:44:29.435Z,13.30
2018-11-22T10:47:10.588Z,12.63
2018-11-22T10:49:51.836Z,11.13
2018-11-22T10:52:32.873Z,14.27
2018-11-22T10:55:03.400Z,12.77
2018-11-22T10:57:53.982Z,11.43
2018-11-22T11:00:53.412Z,9.93
2018-11-22T11:03:42.061Z,10.83
2018-11-22T11:06:49.651Z,10.57
2018-11-22T11:09:31.569Z,12.53
2018-11-22T11:12:12.985Z,11.90
2018-11-22T11:14:53.940Z,12.70
2018-11-22T11:17:35.547Z,10.43
2018-11-22T11:20:16.562Z,10.63
2018-11-22T11:22:58.108Z,11.63
2018-11-22T11:25:39.513Z,11.07
2018-11-22T11:28:20.775Z,10.03
2018-11-22T11:31:02.655Z,11.27
2018-11-22T11:33:44.216Z,11.40
2018-11-22T11:36:25.839Z,10.27
2018-11-22T11:39:07.390Z,10.17
2018-11-22T11:41:48.873Z,9.83
2018-11-22T11:44:19.061Z,9.60
2018-11-22T12:17:59.246Z,10.97
2018-11-22T12:20:28.623Z,9.67
2018-11-22T12:22:58.728Z,10.30
2018-11-22T12:25:28.883Z,11.17
2018-11-22T12:27:59.562Z,10.30
2018-11-22T12:30:30.377Z,10.97
2018-11-22T12:33:04.919Z,10.40
2018-11-22T12:35:39.326Z,10.17
2018-11-22T12:38:13.758Z,10.33
2018-11-22T12:40:42.996Z,9.67
2018-11-22T12:43:12.441Z,10.73
2018-11-22T12:45:41.855Z,9.13
2018-11-22T12:48:11.570Z,9.20
2018-11-22T12:50:40.864Z,14.57
2018-11-22T12:53:10.223Z,11.10
2018-11-22T12:55:39.409Z,10.07
2018-11-22T12:58:08.627Z,11.70
2018-11-22T13:00:37.846Z,9.87
2018-11-22T13:03:07.137Z,10.47
2018-11-22T13:05:36.610Z,11.37
2018-11-22T13:08:05.874Z,13.20
2018-11-22T13:10:35.155Z,10.13
2018-11-22T13:13:04.575Z,11.73
2018-11-22T13:15:33.759Z,10.40
2018-11-22T13:18:03.193Z,12.17
2018-11-22T13:20:32.520Z,10.70
2018-11-22T13:23:01.710Z,8.97
2018-11-22T13:25:31.081Z,9.40
2018-11-22T13:28:00.520Z,9.40
2018-11-22T13:30:30.012Z,9.03
2018-11-22T13:32:59.911Z,10.83
2018-11-22T13:35:29.306Z,10.37
2018-11-22T13:37:58.824Z,11.23
2018-11-22T13:40:28.133Z,12.33
2018-11-22T13:42:57.491Z,11.80
2018-11-22T13:45:28.002Z,11.03
2018-11-22T13:47:58.159Z,10.97
2018-11-22T13:50:29.697Z,12.43
2018-11-22T13:53:00.786Z,10.43
2018-11-22T13:55:30.043Z,9.97
2018-11-22T13:57:59.234Z,11.43
2018-11-22T14:00:29.986Z,10.27
2018-11-22T14:03:01.650Z,9.63
2018-11-22T14:05:31.031Z,10.27
2018-11-22T14:08:00.336Z,9.47
2018-11-22T14:10:29.827Z,12.97
2018-11-22T14:12:59.138Z,9.63
2018-11-22T14:15:30.047Z,11.07
2018-11-22T14:18:00.708Z,9.50
2018-11-22T14:20:31.404Z,9.77
2018-11-22T14:23:00.762Z,10.83
2018-11-22T14:25:30.264Z,10.30
2018-11-22T14:27:59.638Z,10.47
2018-11-22T14:30:30.698Z,9.77
2018-11-22T14:33:00.088Z,11.17
2018-11-22T14:35:29.410Z,13.77
2018-11-22T14:37:58.761Z,13.60
2018-11-22T14:40:30.257Z,11.17
2018-11-22T14:42:59.505Z,12.33
2018-11-22T14:45:29.574Z,13.10
2018-11-22T14:48:00.131Z,10.87
2018-11-22T14:50:31.462Z,13.53
2018-11-22T14:53:18.121Z,11.30
2018-11-22T14:55:47.570Z,12.97
2018-11-22T14:58:16.943Z,9.87
2018-11-22T15:00:46.269Z,11.20
2018-11-22T15:03:15.617Z,11.60
2018-11-22T15:05:45.044Z,12.13
2018-11-22T15:08:14.322Z,16.03
2018-11-22T15:10:43.639Z,14.47
2018-11-22T15:13:13.045Z,16.80
2018-11-22T15:15:42.237Z,18.70
2018-11-22T15:18:11.591Z,17.20
2018-11-22T15:20:40.925Z,18.37
2018-11-22T15:23:10.260Z,16.83
2018-11-22T15:25:39.443Z,16.33
2018-11-22T15:28:08.634Z,17.90
2018-11-22T15:30:37.901Z,16.33
2018-11-22T15:33:07.125Z,20.67
2018-11-22T15:35:36.558Z,18.90
2018-11-22T15:38:05.962Z,18.20
2018-11-22T15:40:35.262Z,18.63
2018-11-22T15:43:05.189Z,20.37
2018-11-22T15:45:35.569Z,20.07
2018-11-22T15:48:04.012Z,19.00
2018-11-22T15:50:33.259Z,18.10
2018-11-22T15:53:02.554Z,18.40
2018-11-22T15:55:31.936Z,18.23
2018-11-22T15:58:01.603Z,20.00
2018-11-22T16:00:32.426Z,23.63
2018-11-22T16:03:02.178Z,20.10
2018-11-22T16:05:32.228Z,22.40
2018-11-22T16:08:01.474Z,19.63
2018-11-22T16:10:32.413Z,20.67
2018-11-22T16:13:03.508Z,19.73
2018-11-22T16:15:36.772Z,19.83
2018-11-22T16:18:06.171Z,19.53
2018-11-22T16:20:35.554Z,22.67
2018-11-22T16:23:05.041Z,18.67
2018-11-22T16:25:34.383Z,21.97
2018-11-22T16:28:03.685Z,18.33
2018-11-22T16:30:33.731Z,20.10
2018-11-22T16:33:03.108Z,20.40
2018-11-22T16:35:33.667Z,19.43
2018-11-22T16:38:02.577Z,17.80
2018-11-22T16:40:32.173Z,19.20
2018-11-22T16:43:02.740Z,18.67
2018-11-22T16:45:33.390Z,17.50
2018-11-22T16:48:05.160Z,18.50
2018-11-22T16:50:35.636Z,19.87
2018-11-22T16:53:05.341Z,17.87
2018-11-22T16:55:34.644Z,17.00
2018-11-22T16:58:04.306Z,18.43
2018-11-22T17:00:37.698Z,21.50
2018-11-22T17:03:09.129Z,21.47
2018-11-22T17:05:38.630Z,19.77
2018-11-22T17:08:08.806Z,19.77
2018-11-22T17:10:38.729Z,19.10
2018-11-22T17:13:08.313Z,17.60
2018-11-22T17:15:38.800Z,17.77
2018-11-22T17:18:09.177Z,18.03
2018-11-22T17:20:38.577Z,18.33
2018-11-22T17:23:08.373Z,17.80
2018-11-22T17:25:38.111Z,18.33
2018-11-22T17:28:08.516Z,19.03
2018-11-22T17:30:39.609Z,17.90
2018-11-22T17:33:09.025Z,18.43
2018-11-22T17:35:38.689Z,18.30
2018-11-22T17:38:09.083Z,17.00
2018-11-22T17:40:40.795Z,17.97
2018-11-22T17:43:10.202Z,17.23
2018-11-22T17:45:41.822Z,18.43
2018-11-22T17:48:11.362Z,20.33
2018-11-22T17:50:42.206Z,20.30
2018-11-22T17:53:12.194Z,17.37
2018-11-22T17:55:41.821Z,16.07
2018-11-22T17:58:11.327Z,17.57
2018-11-22T18:00:48.110Z,16.70
2018-11-22T18:03:17.536Z,17.93
2018-11-22T18:05:46.758Z,17.03
2018-11-22T18:08:16.165Z,15.97
2018-11-22T18:10:45.597Z,16.60
2018-11-22T18:13:14.913Z,18.53
2018-11-22T18:15:49.413Z,16.03
2018-11-22T18:18:18.610Z,16.77
2018-11-22T18:20:47.850Z,16.20
2018-11-22T18:23:17.208Z,21.10
2018-11-22T18:25:48.931Z,18.13
2018-11-22T18:28:15.850Z,14.67
2018-11-22T18:30:45.119Z,16.67
2018-11-22T18:33:14.460Z,20.13
2018-11-22T18:35:43.765Z,14.70
2018-11-22T18:38:12.978Z,16.77
2018-11-22T18:40:43.344Z,17.40
2018-11-22T18:43:12.669Z,17.97
2018-11-22T18:45:43.116Z,17.07
2018-11-22T18:48:14.291Z,16.73
2018-11-22T18:50:44.127Z,16.13
2018-11-22T18:53:13.514Z,16.00
2018-11-22T18:55:42.742Z,15.60
2018-11-22T18:58:11.946Z,19.73
2018-11-22T19:00:42.782Z,16.23
2018-11-22T19:03:13.885Z,18.07
2018-11-22T19:05:43.511Z,16.63
2018-11-22T19:08:12.828Z,18.20
2018-11-22T19:10:43.035Z,20.20
2018-11-22T19:13:13.046Z,18.97
2018-11-22T19:15:44.993Z,18.20
2018-11-22T19:18:14.676Z,19.87
2018-11-22T19:20:44.862Z,16.87
2018-11-22T19:23:14.845Z,18.80
2018-11-22T19:25:44.538Z,21.30
2018-11-22T19:28:13.833Z,21.23
2018-11-22T19:30:44.605Z,19.00
2018-11-22T19:33:15.141Z,20.90
2018-11-22T19:35:45.975Z,18.97
2018-11-22T19:38:15.266Z,18.97
2018-11-22T19:40:44.879Z,18.70
2018-11-22T19:43:14.240Z,17.77
2018-11-22T19:45:45.245Z,19.37
2018-11-22T19:48:14.548Z,18.70
2018-11-22T19:50:43.890Z,16.60
2018-11-22T19:53:14.425Z,17.10
2018-11-22T19:55:44.086Z,18.50
2018-11-22T19:58:14.787Z,20.10
2018-11-22T20:00:44.244Z,22.57
2018-11-22T20:03:13.708Z,28.30
2018-11-22T20:05:43.578Z,26.37
2018-11-22T20:08:17.776Z,25.07
2018-11-22T20:10:47.785Z,23.53
2018-11-22T20:13:17.065Z,25.23
2018-11-22T20:15:46.278Z,25.97
2018-11-22T20:18:16.149Z,27.00
2018-11-22T20:20:49.566Z,28.33
2018-11-22T20:23:17.628Z,25.67
2018-11-22T20:25:44.125Z,23.87
2018-11-22T20:28:13.451Z,21.40
2018-11-22T20:30:44.074Z,25.63
2018-11-22T20:33:13.546Z,24.10
2018-11-22T20:35:42.870Z,22.20
2018-11-22T20:38:12.159Z,23.80
2018-11-22T20:40:41.318Z,23.27
2018-11-22T20:43:10.655Z,23.93
2018-11-22T20:45:40.928Z,24.90
2018-11-22T20:48:09.574Z,24.33
2018-11-22T20:50:39.170Z,25.63
2018-11-22T20:53:08.530Z,29.00
2018-11-22T20:55:39.149Z,32.27
2018-11-22T20:58:08.460Z,31.37
2018-11-22T21:00:39.437Z,29.63
2018-11-22T21:03:08.641Z,32.20
2018-11-22T21:05:37.895Z,30.33
2018-11-22T21:08:07.250Z,28.67
2018-11-22T21:10:36.533Z,29.20
2018-11-22T21:13:05.967Z,28.20
2018-11-22T21:15:36.046Z,33.47
2018-11-22T21:18:06.845Z,30.87
2018-11-22T21:20:38.595Z,32.00
2018-11-22T21:23:08.048Z,29.37
2018-11-22T21:25:38.026Z,28.47
2018-11-22T21:28:07.473Z,29.07
2018-11-22T21:30:38.056Z,30.50
2018-11-22T21:33:07.595Z,28.90
2018-11-22T21:35:37.198Z,27.83
2018-11-22T21:38:07.785Z,32.10
2018-11-22T21:40:37.302Z,32.27
2018-11-22T21:43:06.741Z,29.10
2018-11-22T21:45:36.381Z,27.73
2018-11-22T21:48:05.880Z,32.07
2018-11-22T21:50:35.087Z,28.63
2018-11-22T21:53:04.566Z,40.70
2018-11-22T21:55:33.982Z,72.50
2018-11-22T21:58:03.706Z,87.00
2018-11-22T22:00:36.110Z,113.37
2018-11-22T22:03:07.086Z,126.63
2018-11-22T22:05:36.434Z,135.90
2018-11-22T22:08:05.986Z,123.87
2018-11-22T22:10:35.242Z,132.43
2018-11-22T22:13:04.619Z,126.57
2018-11-22T22:15:35.048Z,145.57
2018-11-22T22:18:04.576Z,141.90
2018-11-22T22:20:35.037Z,144.03
2018-11-22T22:23:04.420Z,141.80
2018-11-22T22:25:33.821Z,141.97
2018-11-22T22:28:03.554Z,137.57
2018-11-22T22:30:34.332Z,133.73
2018-11-22T22:33:04.923Z,121.53
2018-11-22T22:35:34.409Z,106.47
2018-11-22T22:38:03.770Z,97.50
2018-11-22T22:40:33.699Z,96.23
2018-11-22T22:43:03.083Z,99.43
2018-11-22T22:45:33.235Z,99.30
2018-11-22T22:48:02.651Z,106.90
2018-11-22T22:50:32.500Z,91.70
2018-11-22T22:53:02.011Z,83.37
2018-11-22T22:55:31.728Z,82.83
2018-11-22T22:58:01.231Z,78.20
2018-11-22T23:00:35.856Z,89.00
2018-11-22T23:03:06.798Z,74.50
2018-11-22T23:05:36.407Z,73.30
2018-11-22T23:08:05.683Z,72.00
2018-11-22T23:10:34.877Z,76.20
2018-11-22T23:13:04.195Z,72.87
2018-11-22T23:15:33.578Z,64.47
2018-11-22T23:18:03.131Z,65.60
2018-11-22T23:20:33.953Z,61.93
2018-11-22T23:23:03.178Z,60.30
2018-11-22T23:25:32.461Z,58.33
2018-11-22T23:28:01.891Z,59.63
2018-11-22T23:30:32.752Z,58.87
2018-11-22T23:33:04.420Z,60.70
2018-11-22T23:35:33.771Z,61.53
2018-11-22T23:38:03.123Z,56.77
2018-11-22T23:40:33.106Z,54.93
2018-11-22T23:43:02.382Z,51.90
2018-11-22T23:45:32.643Z,53.33
2018-11-22T23:48:01.867Z,57.10
2018-11-22T23:50:32.325Z,52.77
2018-11-22T23:53:02.938Z,53.60
2018-11-22T23:55:32.358Z,47.77
2018-11-22T23:58:01.775Z,48.27
